createdAt,value
2023-02-03T00:01:09.286Z,101806.09
2023-02-03T00:03:36.982Z,101809.03
2023-02-03T00:06:05.417Z,101818.59
2023-02-03T00:08:33.384Z,101813.31
2023-02-03T00:11:01.307Z,101803.66
2023-02-03T00:13:30.522Z,101818.03
2023-02-03T00:15:58.286Z,101810.09
2023-02-03T00:18:26.088Z,101818.28
2023-02-03T00:20:53.766Z,101816.50
2023-02-03T00:23:21.517Z,101826.13
2023-02-03T00:25:49.194Z,101822.75
2023-02-03T00:28:16.890Z,101811.41
2023-02-03T00:30:45.931Z,101803.94
2023-02-03T00:33:13.571Z,101793.81
2023-02-03T00:35:41.406Z,101782.47
2023-02-03T00:38:08.987Z,101773.47
2023-02-03T00:40:36.680Z,101761.81
2023-02-03T00:43:04.319Z,101775.06
2023-02-03T00:45:32.048Z,101764.56
2023-02-03T00:48:01.101Z,101776.13
2023-02-03T00:50:29.003Z,101778.75
2023-02-03T00:52:56.736Z,101776.97
2023-02-03T00:55:24.407Z,101783.94
2023-02-03T00:57:51.960Z,101800.69
2023-02-03T01:00:20.551Z,101791.91
2023-02-03T01:02:48.246Z,101800.59
2023-02-03T01:05:17.360Z,101794.09
2023-02-03T01:07:44.932Z,101782.34
2023-02-03T01:10:12.588Z,101778.59
2023-02-03T01:12:40.185Z,101783.78
2023-02-03T01:15:09.854Z,101772.69
2023-02-03T01:17:37.567Z,101763.06
2023-02-03T01:20:05.916Z,101758.22
2023-02-03T01:22:34.844Z,101746.59
2023-02-03T01:25:02.444Z,101738.72
2023-02-03T01:27:30.075Z,101723.03
2023-02-03T01:29:57.839Z,101706.91
2023-02-03T01:32:25.699Z,101699.69
2023-02-03T01:34:53.306Z,101708.81
2023-02-03T01:37:20.866Z,101710.53
2023-02-03T01:39:49.888Z,101716.31
2023-02-03T01:42:17.532Z,101746.31
2023-02-03T01:44:47.541Z,101747.59
2023-02-03T01:47:25.561Z,101753.28
2023-02-03T01:49:59.423Z,101745.00
2023-02-03T01:52:28.095Z,101750.09
2023-02-03T01:55:01.047Z,101745.75
2023-02-03T01:57:33.390Z,101743.16
2023-02-03T02:00:01.963Z,101735.81
2023-02-03T02:02:30.390Z,101724.47
2023-02-03T02:05:04.154Z,101728.94
2023-02-03T02:07:33.557Z,101725.56
2023-02-03T02:10:03.249Z,101722.69
2023-02-03T02:12:30.892Z,101732.22
2023-02-03T02:14:59.107Z,101734.28
2023-02-03T02:17:45.308Z,101728.88
2023-02-03T02:20:39.228Z,101699.41
2023-02-03T02:23:38.502Z,101702.19
2023-02-03T02:26:31.697Z,101712.53
2023-02-03T02:29:21.011Z,101709.66
2023-02-03T02:32:12.723Z,101710.84
2023-02-03T02:34:51.932Z,101708.91
2023-02-03T02:37:27.675Z,101702.78
2023-02-03T02:40:01.691Z,101700.00
2023-02-03T02:42:40.413Z,101703.63
2023-02-03T02:45:16.071Z,101717.22
2023-02-03T02:47:46.181Z,101732.72
2023-02-03T02:50:19.271Z,101734.56
2023-02-03T02:52:49.291Z,101741.34
2023-02-03T02:55:24.658Z,101726.91
2023-02-03T02:57:55.604Z,101730.06
2023-02-03T03:00:24.257Z,101724.38
2023-02-03T03:02:53.363Z,101726.69
2023-02-03T03:05:21.167Z,101750.53
2023-02-03T03:07:56.124Z,101752.72
2023-02-03T03:10:29.446Z,101767.06
2023-02-03T03:13:00.394Z,101769.72
2023-02-03T03:15:31.961Z,101776.81
2023-02-03T03:18:06.951Z,101789.53
2023-02-03T03:20:37.452Z,101790.84
2023-02-03T03:23:11.111Z,101785.19
2023-02-03T03:25:42.661Z,101784.34
2023-02-03T03:28:17.128Z,101778.44
2023-02-03T03:30:45.239Z,101770.81
2023-02-03T03:33:14.286Z,101757.81
2023-02-03T03:35:48.149Z,101760.22
2023-02-03T03:38:21.421Z,101760.22
2023-02-03T03:40:54.223Z,101759.38
2023-02-03T03:43:27.864Z,101753.84
2023-02-03T03:46:00.129Z,101749.19
2023-02-03T03:48:34.879Z,101751.56
2023-02-03T03:51:06.351Z,101753.22
2023-02-03T03:53:38.313Z,101743.72
2023-02-03T03:56:08.552Z,101753.84
2023-02-03T03:58:39.497Z,101741.09
2023-02-03T04:01:09.816Z,101736.91
2023-02-03T04:03:42.408Z,101733.41
2023-02-03T04:06:10.117Z,101736.91
2023-02-03T04:08:39.360Z,101741.34
2023-02-03T04:11:07.706Z,101755.94
2023-02-03T04:13:35.395Z,101754.66
2023-02-03T04:16:03.093Z,101754.03
2023-02-03T04:18:30.750Z,101750.44
2023-02-03T04:20:59.789Z,101740.78
2023-02-03T04:23:27.550Z,101722.44
2023-02-03T04:25:55.130Z,101720.53
2023-02-03T04:28:22.828Z,101732.09
2023-02-03T04:30:50.448Z,101730.38
2023-02-03T04:33:18.017Z,101731.03
2023-02-03T04:35:45.645Z,101737.91
2023-02-03T04:38:14.619Z,101734.28
2023-02-03T04:40:42.585Z,101739.34
2023-02-03T04:43:10.199Z,101740.94
2023-02-03T04:45:37.918Z,101751.00
2023-02-03T04:48:05.812Z,101732.66
2023-02-03T04:50:33.849Z,101741.91
2023-02-03T04:53:01.523Z,101736.59
2023-02-03T04:55:30.573Z,101732.25
2023-02-03T04:57:58.299Z,101734.72
2023-02-03T05:00:26.978Z,101734.78
2023-02-03T05:02:55.101Z,101727.69
2023-02-03T05:05:22.894Z,101726.22
2023-02-03T05:07:50.514Z,101740.03
2023-02-03T05:10:18.280Z,101744.28
2023-02-03T05:12:47.298Z,101747.25
2023-02-03T05:15:15.244Z,101759.38
2023-02-03T05:17:42.911Z,101763.50
2023-02-03T05:20:12.224Z,101758.31
2023-02-03T05:22:39.897Z,101753.66
2023-02-03T05:25:08.580Z,101758.84
2023-02-03T05:27:36.472Z,101769.94
2023-02-03T05:30:06.215Z,101759.66
2023-02-03T05:32:33.999Z,101755.56
2023-02-03T05:35:01.771Z,101745.59
2023-02-03T05:37:29.422Z,101728.59
2023-02-03T05:40:17.509Z,101721.75
2023-02-03T05:42:47.951Z,101709.44
2023-02-03T05:45:17.119Z,101736.25
2023-02-03T05:47:44.834Z,101743.16
2023-02-03T05:50:12.475Z,101734.34
2023-02-03T05:52:42.760Z,101753.22
2023-02-03T05:55:10.493Z,101746.97
2023-02-03T05:57:38.115Z,101735.41
2023-02-03T06:00:07.403Z,101730.13
2023-02-03T06:02:36.492Z,101709.56
2023-02-03T06:05:04.228Z,101714.22
2023-02-03T06:07:31.893Z,101700.66
2023-02-03T06:09:59.526Z,101703.72
2023-02-03T06:12:29.110Z,101706.06
2023-02-03T06:14:57.035Z,101696.41
2023-02-03T06:17:24.714Z,101701.25
2023-02-03T06:19:53.673Z,101702.09
2023-02-03T06:22:21.279Z,101711.84
2023-02-03T06:24:49.403Z,101702.56
2023-02-03T06:27:17.312Z,101688.47
2023-02-03T06:29:44.951Z,101678.06
2023-02-03T06:32:12.823Z,101670.47
2023-02-03T06:34:40.612Z,101680.13
2023-02-03T06:37:09.759Z,101672.50
2023-02-03T06:39:37.437Z,101672.97
2023-02-03T06:42:07.023Z,101686.31
2023-02-03T06:44:34.727Z,101699.00
2023-02-03T06:47:03.119Z,101697.09
2023-02-03T06:49:31.041Z,101700.59
2023-02-03T06:51:58.912Z,101703.50
2023-02-03T06:54:27.965Z,101724.81
2023-02-03T06:56:55.564Z,101728.22
2023-02-03T06:59:23.598Z,101725.19
2023-02-03T07:01:51.335Z,101728.69
2023-02-03T07:04:19.244Z,101744.75
2023-02-03T07:06:48.489Z,101754.13
2023-02-03T07:09:16.219Z,101752.97
2023-02-03T07:11:45.144Z,101754.66
2023-02-03T07:14:12.843Z,101742.22
2023-02-03T07:16:40.849Z,101746.81
2023-02-03T07:19:08.559Z,101746.81
2023-02-03T07:21:36.197Z,101744.66
2023-02-03T07:24:03.968Z,101754.53
2023-02-03T07:26:31.593Z,101759.50
2023-02-03T07:29:01.016Z,101753.16
2023-02-03T07:31:28.839Z,101765.44
2023-02-03T07:33:56.616Z,101772.22
2023-02-03T07:36:24.656Z,101766.53
2023-02-03T07:38:52.662Z,101765.84
2023-02-03T07:41:20.332Z,101763.94
2023-02-03T07:43:47.987Z,101762.06
2023-02-03T07:46:17.171Z,101750.38
2023-02-03T07:48:44.951Z,101765.69
2023-02-03T07:51:12.627Z,101762.25
2023-02-03T07:53:40.313Z,101761.41
2023-02-03T07:56:08.055Z,101754.81
2023-02-03T07:58:35.763Z,101755.34
2023-02-03T08:01:10.340Z,101759.56
2023-02-03T08:03:39.363Z,101755.84
2023-02-03T08:06:07.930Z,101773.97
2023-02-03T08:08:35.881Z,101769.59
2023-02-03T08:11:03.643Z,101761.75
2023-02-03T08:13:34.215Z,101761.66
2023-02-03T08:16:02.082Z,101772.16
2023-02-03T08:18:32.462Z,101754.66
2023-02-03T08:21:03.647Z,101781.78
2023-02-03T08:23:31.961Z,101778.03
2023-02-03T08:25:59.642Z,101766.38
2023-02-03T08:28:27.712Z,101764.22
2023-02-03T08:30:56.555Z,101767.72
2023-02-03T08:33:24.363Z,101765.91
2023-02-03T08:35:52.078Z,101771.47
2023-02-03T08:38:21.823Z,101766.75
2023-02-03T08:40:49.564Z,101759.75
2023-02-03T08:43:17.349Z,101761.44
2023-02-03T08:45:45.143Z,101773.63
2023-02-03T08:48:12.881Z,101765.44
2023-02-03T08:50:44.397Z,101752.78
2023-02-03T08:53:12.224Z,101744.50
2023-02-03T08:55:41.477Z,101756.53
2023-02-03T08:58:09.209Z,101757.38
2023-02-03T09:00:36.798Z,101754.38
2023-02-03T09:03:05.141Z,101756.44
2023-02-03T09:05:33.269Z,101756.66
2023-02-03T09:08:01.043Z,101758.59
2023-02-03T09:10:29.397Z,101754.38
2023-02-03T09:12:58.996Z,101748.81
2023-02-03T09:15:27.067Z,101742.91
2023-02-03T09:17:55.363Z,101748.94
2023-02-03T09:20:24.516Z,101743.75
2023-02-03T09:22:52.472Z,101753.53
2023-02-03T09:25:20.123Z,101760.16
2023-02-03T09:27:47.848Z,101748.59
2023-02-03T09:30:17.511Z,101750.75
2023-02-03T09:32:48.863Z,101756.78
2023-02-03T09:35:16.631Z,101757.88
2023-02-03T09:37:44.279Z,101745.59
2023-02-03T09:40:21.916Z,101754.25
2023-02-03T09:43:06.075Z,101747.88
2023-02-03T09:45:35.244Z,101743.41
2023-02-03T09:48:07.436Z,101735.09
2023-02-03T09:50:37.276Z,101733.56
2023-02-03T09:53:09.133Z,101736.44
2023-02-03T09:55:41.049Z,101743.66
2023-02-03T09:58:13.345Z,101747.78
2023-02-03T10:00:44.661Z,101752.94
2023-02-03T10:03:24.477Z,101755.50
2023-02-03T10:06:03.839Z,101763.09
2023-02-03T10:08:44.899Z,101749.56
2023-02-03T10:11:23.832Z,101750.19
2023-02-03T10:14:05.564Z,101728.84
2023-02-03T10:16:57.790Z,101757.53
2023-02-03T10:19:33.456Z,101741.38
2023-02-03T10:22:03.147Z,101751.84
2023-02-03T10:24:41.023Z,101748.00
2023-02-03T10:27:17.178Z,101754.78
2023-02-03T10:29:44.861Z,101756.44
2023-02-03T10:32:14.488Z,101740.28
2023-02-03T10:34:45.959Z,101740.06
2023-02-03T10:37:23.855Z,101741.38
2023-02-03T10:39:53.598Z,101742.34
2023-02-03T10:42:23.280Z,101735.13
2023-02-03T10:44:55.213Z,101728.72
2023-02-03T10:47:27.978Z,101720.78
2023-02-03T10:49:58.282Z,101722.31
2023-02-03T10:52:29.605Z,101714.50
2023-02-03T10:54:59.368Z,101703.38
2023-02-03T10:57:30.018Z,101720.88
2023-02-03T11:00:22.306Z,101711.56
2023-02-03T11:03:01.146Z,101713.03
2023-02-03T11:05:29.023Z,101711.47
2023-02-03T11:07:58.979Z,101709.91
2023-02-03T11:10:35.541Z,101712.31
2023-02-03T11:13:14.904Z,101711.81
2023-02-03T11:15:53.442Z,101701.94
2023-02-03T11:18:48.012Z,101704.72
2023-02-03T11:21:18.820Z,101710.84
2023-02-03T11:24:05.931Z,101717.88
2023-02-03T11:26:37.047Z,101721.59
2023-02-03T11:29:08.160Z,101722.94
2023-02-03T11:31:37.718Z,101717.03
2023-02-03T11:34:17.378Z,101731.72
2023-02-03T11:36:45.050Z,101726.41
2023-02-03T11:39:20.174Z,101730.78
2023-02-03T11:41:48.980Z,101733.78
2023-02-03T11:44:20.122Z,101737.31
2023-02-03T11:46:50.428Z,101728.00
2023-02-03T11:49:48.456Z,101728.84
2023-02-03T11:52:47.725Z,101720.03
2023-02-03T11:55:32.617Z,101712.66
2023-02-03T11:58:18.002Z,101704.84
2023-02-03T12:00:51.727Z,101701.72
2023-02-03T12:03:45.160Z,101679.25
2023-02-03T12:06:28.128Z,101686.03
2023-02-03T12:09:20.840Z,101680.47
2023-02-03T12:12:08.633Z,101674.66
2023-02-03T12:14:49.048Z,101679.25
2023-02-03T12:17:30.225Z,101654.41
2023-02-03T12:20:07.633Z,101644.75
2023-02-03T12:22:48.505Z,101642.31
2023-02-03T12:25:32.859Z,101666.00
2023-02-03T12:28:12.828Z,101660.91
2023-02-03T12:30:48.348Z,101665.97
2023-02-03T12:33:20.424Z,101686.22
2023-02-03T12:35:54.128Z,101676.34
2023-02-03T12:38:32.688Z,101676.94
2023-02-03T12:41:04.354Z,101665.88
2023-02-03T12:43:37.996Z,101662.59
2023-02-03T12:46:13.518Z,101656.34
2023-02-03T12:48:51.557Z,101658.13
2023-02-03T12:51:31.941Z,101650.28
2023-02-03T12:54:07.091Z,101636.28
2023-02-03T12:56:42.731Z,101636.06
2023-02-03T12:59:16.717Z,101625.56
2023-02-03T13:01:50.755Z,101624.25
2023-02-03T13:04:30.119Z,101617.97
2023-02-03T13:07:04.632Z,101629.44
2023-02-03T13:09:40.275Z,101620.88
2023-02-03T13:12:12.065Z,101627.84
2023-02-03T13:14:44.553Z,101633.50
2023-02-03T13:17:18.295Z,101630.63
2023-02-03T13:19:50.018Z,101630.97
2023-02-03T13:22:18.185Z,101634.13
2023-02-03T13:24:54.729Z,101640.13
2023-02-03T13:27:38.085Z,101639.28
2023-02-03T13:30:24.809Z,101626.53
2023-02-03T13:33:28.141Z,101618.22
2023-02-03T13:36:09.431Z,101629.28
2023-02-03T13:39:03.110Z,101615.56
2023-02-03T13:41:38.192Z,101610.97
2023-02-03T13:44:13.777Z,101595.06
2023-02-03T13:46:42.262Z,101614.38
2023-02-03T13:49:10.855Z,101601.72
2023-02-03T13:51:46.167Z,101606.41
2023-02-03T13:54:18.352Z,101621.25
2023-02-03T13:56:57.173Z,101611.94
2023-02-03T13:59:31.891Z,101617.03
2023-02-03T14:02:32.852Z,101624.88
2023-02-03T14:05:02.050Z,101635.81
2023-02-03T14:07:33.841Z,101627.28
2023-02-03T14:10:17.554Z,101608.81
2023-02-03T14:13:00.567Z,101616.53
2023-02-03T14:15:33.781Z,101616.06
2023-02-03T14:18:20.682Z,101610.53
2023-02-03T14:20:57.769Z,101612.91
2023-02-03T14:23:39.570Z,101615.09
2023-02-03T14:26:15.380Z,101617.75
2023-02-03T14:28:47.098Z,101605.19
2023-02-03T14:31:18.896Z,101610.97
2023-02-03T14:34:14.718Z,101615.91
2023-02-03T14:36:57.102Z,101614.44
2023-02-03T14:39:57.437Z,101625.66
2023-02-03T14:42:45.492Z,101602.84
2023-02-03T14:45:33.586Z,101618.88
2023-02-03T14:48:13.637Z,101608.47
2023-02-03T14:50:54.508Z,101611.66
2023-02-03T14:53:36.742Z,101613.56
2023-02-03T14:56:15.840Z,101620.97
2023-02-03T14:58:46.996Z,101636.78
2023-02-03T15:02:08.021Z,101626.00
2023-02-03T15:04:36.187Z,101634.84
2023-02-03T15:07:03.991Z,101641.81
2023-02-03T15:09:35.886Z,101634.00
2023-02-03T15:12:03.749Z,101640.41
2023-02-03T15:14:32.209Z,101643.16
2023-02-03T15:17:03.042Z,101629.78
2023-02-03T15:19:35.648Z,101629.78
2023-02-03T15:22:04.005Z,101624.72
2023-02-03T15:24:37.977Z,101630.63
2023-02-03T15:27:05.644Z,101623.50
2023-02-03T15:29:36.448Z,101626.28
2023-02-03T15:32:10.804Z,101629.78
2023-02-03T15:34:43.138Z,101621.09
2023-02-03T15:37:17.657Z,101619.66
2023-02-03T15:40:01.760Z,101629.44
2023-02-03T15:42:35.271Z,101635.31
2023-02-03T15:45:08.274Z,101629.78
2023-02-03T15:47:40.833Z,101635.44
2023-02-03T15:50:26.639Z,101661.63
2023-02-03T15:52:58.307Z,101669.38
2023-02-03T15:55:33.868Z,101654.41
2023-02-03T15:58:02.016Z,101658.50
2023-02-03T16:00:34.336Z,101655.72
2023-02-03T16:03:06.657Z,101655.47
2023-02-03T16:05:37.129Z,101643.31
2023-02-03T16:08:28.559Z,101657.41
2023-02-03T16:10:56.387Z,101661.16
2023-02-03T16:13:25.938Z,101675.03
2023-02-03T16:16:08.294Z,101669.03
2023-02-03T16:18:37.793Z,101676.84
2023-02-03T16:21:06.010Z,101673.34
2023-02-03T16:23:34.044Z,101675.28
2023-02-03T16:26:19.417Z,101686.25
2023-02-03T16:29:15.442Z,101695.78
2023-02-03T16:32:04.604Z,101695.16
2023-02-03T16:34:50.978Z,101691.56
2023-02-03T16:37:43.385Z,101706.88
2023-02-03T16:40:30.295Z,101715.19
2023-02-03T16:43:15.848Z,101720.00
2023-02-03T16:46:01.234Z,101723.38
2023-02-03T16:48:46.532Z,101715.19
2023-02-03T16:51:17.302Z,101722.19
2023-02-03T16:53:48.300Z,101724.84
2023-02-03T16:56:18.590Z,101725.56
2023-02-03T16:58:46.411Z,101725.31
2023-02-03T17:01:14.126Z,101731.97
2023-02-03T17:03:41.988Z,101720.28
2023-02-03T17:06:12.024Z,101720.72
2023-02-03T17:08:42.329Z,101717.13
2023-02-03T17:11:15.258Z,101713.97
2023-02-03T17:13:43.556Z,101705.06
2023-02-03T17:16:14.417Z,101698.28
2023-02-03T17:18:42.182Z,101694.09
2023-02-03T17:21:12.233Z,101704.31
2023-02-03T17:23:41.627Z,101706.25
2023-02-03T17:26:09.391Z,101713.97
2023-02-03T17:28:37.864Z,101707.47
2023-02-03T17:31:08.153Z,101708.53
2023-02-03T17:33:36.250Z,101712.78
2023-02-03T17:36:06.707Z,101718.44
2023-02-03T17:55:11.126Z,101712.03
2023-02-03T17:57:40.808Z,101716.50
2023-02-03T18:00:10.595Z,101721.47
2023-02-03T18:02:38.445Z,101707.47
2023-02-03T18:05:07.029Z,101714.69
2023-02-03T18:07:35.262Z,101721.91
2023-02-03T18:10:03.270Z,101718.94
2023-02-03T18:12:31.559Z,101721.22
2023-02-03T18:15:00.838Z,101715.91
2023-02-03T18:17:28.811Z,101718.09
2023-02-03T18:19:56.833Z,101715.31
2023-02-03T18:22:24.694Z,101716.88
2023-02-03T18:24:52.646Z,101716.16
2023-02-03T18:27:20.714Z,101716.53
2023-02-03T18:29:49.641Z,101713.59
2023-02-03T18:32:19.884Z,101713.97
2023-02-03T18:34:47.987Z,101712.41
2023-02-03T18:37:15.646Z,101709.75
2023-02-03T18:39:43.305Z,101715.91
2023-02-03T18:42:13.115Z,101720.13
2023-02-03T18:44:41.272Z,101724.59
2023-02-03T18:47:08.899Z,101706.25
2023-02-03T18:49:37.966Z,101713.50
2023-02-03T18:52:06.800Z,101719.28
2023-02-03T18:54:34.443Z,101713.03
2023-02-03T18:57:02.902Z,101718.06
2023-02-03T18:59:30.629Z,101724.09
2023-02-03T19:01:58.328Z,101724.34
2023-02-03T19:04:29.504Z,101722.94
2023-02-03T19:07:00.845Z,101720.50
2023-02-03T19:09:28.598Z,101730.38
2023-02-03T19:11:57.705Z,101741.94
2023-02-03T19:14:25.775Z,101752.56
2023-02-03T19:16:53.611Z,101750.63
2023-02-03T19:19:22.478Z,101748.72
2023-02-03T19:21:52.150Z,101750.41
2023-02-03T19:24:21.662Z,101756.69
2023-02-03T19:26:52.696Z,101767.31
2023-02-03T19:29:28.319Z,101769.94
2023-02-03T19:31:56.435Z,101765.81
2023-02-03T19:34:24.236Z,101777.91
2023-02-03T19:36:52.600Z,101773.94
2023-02-03T19:39:22.040Z,101778.91
2023-02-03T19:41:49.718Z,101777.09
2023-02-03T19:44:17.388Z,101777.44
2023-02-03T19:46:45.212Z,101784.69
2023-02-03T19:49:15.017Z,101780.22
2023-02-03T19:51:44.270Z,101795.06
2023-02-03T19:54:13.181Z,101791.19
2023-02-03T19:56:42.149Z,101794.38
2023-02-03T19:59:17.307Z,101797.50
2023-02-03T20:01:45.402Z,101800.03
2023-02-03T20:04:16.422Z,101802.19
2023-02-03T20:06:44.839Z,101809.09
2023-02-03T20:09:12.916Z,101810.16
2023-02-03T20:11:41.944Z,101812.13
2023-02-03T20:14:10.025Z,101819.13
2023-02-03T20:16:37.762Z,101824.19
2023-02-03T20:19:05.548Z,101812.25
2023-02-03T20:21:33.181Z,101812.00
2023-02-03T20:24:00.819Z,101819.72
2023-02-03T20:26:28.601Z,101817.53
2023-02-03T20:28:57.681Z,101821.88
2023-02-03T20:31:25.539Z,101812.72
2023-02-03T20:33:53.323Z,101826.97
2023-02-03T20:36:21.048Z,101827.72
2023-02-03T20:38:48.732Z,101825.06
2023-02-03T20:41:19.020Z,101833.72
2023-02-03T20:43:47.016Z,101833.72
2023-02-03T20:46:19.131Z,101837.94
2023-02-03T20:48:46.948Z,101833.72
2023-02-03T20:51:15.621Z,101829.13
2023-02-03T20:53:44.457Z,101823.94
2023-02-03T20:56:15.437Z,101842.41
2023-02-03T20:58:44.908Z,101842.31
2023-02-03T21:01:17.020Z,101848.94
2023-02-03T21:04:13.092Z,101852.09
2023-02-03T21:06:56.844Z,101856.44
2023-02-03T21:09:31.461Z,101851.81
2023-02-03T21:12:00.191Z,101853.06
2023-02-03T21:14:41.219Z,101861.03
2023-02-03T21:17:18.405Z,101861.03
2023-02-03T21:19:46.793Z,101869.72
2023-02-03T21:22:18.995Z,101870.31
2023-02-03T21:24:51.007Z,101867.53
2023-02-03T21:27:25.850Z,101863.19
2023-02-03T21:29:56.547Z,101865.00
2023-02-03T21:32:27.934Z,101865.00
2023-02-03T21:34:55.591Z,101868.28
2023-02-03T21:37:43.852Z,101868.28
2023-02-03T21:40:23.850Z,101851.13
2023-02-03T21:42:52.523Z,101845.81
2023-02-03T21:45:37.196Z,101833.97
2023-02-03T21:48:30.113Z,101844.34
2023-02-03T21:51:00.947Z,101822.13
2023-02-03T21:53:35.245Z,101826.75
2023-02-03T21:56:19.570Z,101828.19
2023-02-03T21:58:48.651Z,101829.88
2023-02-03T22:01:19.839Z,101834.09
2023-02-03T22:03:51.381Z,101843.38
2023-02-03T22:06:24.471Z,101853.06
2023-02-03T22:08:54.028Z,101862.00
2023-02-03T22:11:23.523Z,101857.16
2023-02-03T22:13:51.450Z,101865.13
2023-02-03T22:16:19.866Z,101882.50
2023-02-03T22:18:50.554Z,101870.19
2023-02-03T22:21:19.036Z,101872.00
2023-02-03T22:23:47.317Z,101877.19
2023-02-03T22:26:16.863Z,101874.53
2023-02-03T22:28:44.910Z,101891.22
2023-02-03T22:31:13.682Z,101890.97
2023-02-03T22:33:42.524Z,101901.00
2023-02-03T22:36:11.999Z,101898.22
2023-02-03T22:38:41.174Z,101900.16
2023-02-03T22:41:11.780Z,101900.88
2023-02-03T22:43:40.312Z,101904.38
2023-02-03T22:46:08.792Z,101905.22
2023-02-03T22:48:36.730Z,101908.63
2023-02-03T22:51:05.002Z,101907.38
2023-02-03T22:53:34.847Z,101916.31
2023-02-03T22:56:03.008Z,101933.94
2023-02-03T22:58:31.030Z,101927.44
2023-02-03T23:00:58.943Z,101920.06
2023-02-03T23:03:26.858Z,101921.41
2023-02-03T23:05:55.221Z,101934.78
2023-02-03T23:08:22.998Z,101926.72
2023-02-03T23:10:52.198Z,101935.66
2023-02-03T23:13:19.901Z,101944.59
2023-02-03T23:15:47.772Z,101946.53
2023-02-03T23:18:15.596Z,101948.59
2023-02-03T23:20:43.256Z,101942.28
2023-02-03T23:23:10.963Z,101955.22
2023-02-03T23:25:38.804Z,101939.28
2023-02-03T23:28:08.326Z,101939.00
2023-02-03T23:30:36.221Z,101939.75
2023-02-03T23:33:03.866Z,101943.13
2023-02-03T23:35:45.943Z,101940.72
2023-02-03T23:38:14.435Z,101944.84
2023-02-03T23:40:42.379Z,101953.41
2023-02-03T23:43:11.902Z,101947.00
2023-02-03T23:45:39.933Z,101954.25
2023-02-03T23:48:08.676Z,101954.25
2023-02-03T23:50:36.521Z,101963.06
2023-02-03T23:53:04.254Z,101942.53
2023-02-03T23:55:32.248Z,101946.28
2023-02-03T23:58:00.139Z,101950.63
